Time;durP1;ratioP1;P1;durP2;ratioP2;P2;SDS_P1;SDS_P2;PMS_P1;PMS_P2;Temp;Humidity;BMP_temperature;BMP_pressure;BME280_temperature;BME280_humidity;BME280_pressure;Samples;Min_cycle;Max_cycle;Signal;HPM_P1;HPM_P2
2022/05/04 00:00:10;;;;;;;5.90;4.40;;;13.20;92.30;;;;;;5055049;28;20198;-65
2022/05/04 00:02:37;;;;;;;6.30;5.20;;;13.30;92.50;;;;;;5054691;28;20515;-65
2022/05/04 00:05:05;;;;;;;6.73;4.70;;;13.30;92.40;;;;;;5054820;28;20567;-65
2022/05/04 00:07:32;;;;;;;5.30;4.55;;;13.30;92.20;;;;;;5055100;28;20515;-65
2022/05/04 00:10:01;;;;;;;5.15;4.05;;;13.30;92.60;;;;;;5054231;28;20197;-65
2022/05/04 00:12:28;;;;;;;4.90;4.27;;;13.20;93.00;;;;;;5055442;28;20595;-65
2022/05/04 00:14:55;;;;;;;6.00;3.60;;;13.30;93.00;;;;;;5054141;28;20437;-64
2022/05/04 00:17:22;;;;;;;5.25;4.25;;;13.30;92.80;;;;;;5055081;28;20443;-64
2022/05/04 00:19:49;;;;;;;6.57;4.50;;;13.30;92.80;;;;;;5053306;28;20281;-65
2022/05/04 00:22:20;;;;;;;5.38;4.88;;;13.30;93.20;;;;;;5055069;28;20456;-65
2022/05/04 00:24:47;;;;;;;5.18;3.50;;;13.30;93.20;;;;;;5054445;28;20323;-64
2022/05/04 00:27:16;;;;;;;4.90;3.53;;;13.30;93.40;;;;;;5054390;28;20274;-65
2022/05/04 00:29:43;;;;;;;5.00;4.30;;;13.10;93.90;;;;;;5054199;28;20194;-65
2022/05/04 00:32:11;;;;;;;4.80;3.85;;;12.90;94.10;;;;;;5054817;28;20440;-64
2022/05/04 00:34:39;;;;;;;5.47;3.42;;;12.70;94.30;;;;;;5054424;28;20209;-65
2022/05/04 00:37:06;;;;;;;6.45;3.60;;;12.80;94.30;;;;;;5054771;28;20238;-65
2022/05/04 00:39:33;;;;;;;9.35;3.45;;;12.70;94.40;;;;;;5054071;28;20200;-65
2022/05/04 00:42:11;;;;;;;3.40;2.80;;;12.60;94.60;;;;;;5052319;28;20716;-66
2022/05/04 00:44:40;;;;;;;6.93;4.13;;;12.60;95.00;;;;;;5054685;28;20210;-65
2022/05/04 00:47:08;;;;;;;7.32;3.80;;;12.60;95.20;;;;;;5053392;28;20209;-65
2022/05/04 00:49:35;;;;;;;4.40;3.40;;;12.50;95.40;;;;;;5054584;28;20190;-62
2022/05/04 00:52:04;;;;;;;4.03;3.42;;;12.50;95.20;;;;;;5054058;28;20189;-63
2022/05/04 00:54:31;;;;;;;4.13;3.13;;;12.50;95.70;;;;;;5053631;28;20190;-63
2022/05/04 00:56:59;;;;;;;6.20;3.50;;;12.60;95.90;;;;;;5053879;28;20186;-63
2022/05/04 00:59:26;;;;;;;4.65;3.33;;;12.60;95.70;;;;;;5054396;28;20281;-62
2022/05/04 01:01:54;;;;;;;5.05;3.45;;;12.70;95.60;;;;;;5053841;28;20281;-62
2022/05/04 01:04:21;;;;;;;3.97;3.58;;;12.70;95.50;;;;;;5054442;28;20225;-62
2022/05/04 01:06:48;;;;;;;4.32;3.13;;;12.80;95.50;;;;;;5054295;28;20197;-66
2022/05/04 01:09:16;;;;;;;4.32;3.00;;;12.80;95.40;;;;;;5053836;28;20696;-62
2022/05/04 01:11:43;;;;;;;4.47;2.93;;;12.90;95.30;;;;;;5054053;28;20624;-62
2022/05/04 01:14:12;;;;;;;3.85;2.80;;;13.00;95.00;;;;;;5053433;28;20532;-62
2022/05/04 01:16:41;;;;;;;3.40;2.72;;;13.00;94.40;;;;;;5054165;28;20226;-62
2022/05/04 01:19:11;;;;;;;3.92;2.67;;;12.90;94.10;;;;;;5053351;28;20263;-62
2022/05/04 01:21:38;;;;;;;3.03;2.30;;;12.90;94.00;;;;;;5053167;28;20269;-62
2022/05/04 01:24:08;;;;;;;2.92;2.25;;;12.80;94.20;;;;;;5053921;28;20285;-62
2022/05/04 01:26:35;;;;;;;3.10;2.30;;;12.70;94.60;;;;;;5053025;28;20277;-62
2022/05/04 01:29:02;;;;;;;4.35;2.95;;;12.70;94.40;;;;;;5054236;28;20201;-62
2022/05/04 01:31:29;;;;;;;4.68;2.30;;;12.60;94.60;;;;;;5053304;28;20613;-62
2022/05/04 01:33:56;;;;;;;3.55;2.20;;;12.40;94.60;;;;;;5053860;28;20186;-62
2022/05/04 01:36:23;;;;;;;3.63;2.47;;;12.40;95.00;;;;;;5051537;28;20269;-62
2022/05/04 01:38:50;;;;;;;4.35;2.03;;;12.40;95.10;;;;;;5052695;28;20193;-62
2022/05/04 01:44:02;;;;;;;4.00;2.80;;;12.40;94.20;;;;;;5053725;28;20189;-62
2022/05/04 01:46:29;;;;;;;6.80;3.50;;;12.40;94.30;;;;;;5052684;28;20218;-62
2022/05/04 01:48:56;;;;;;;3.28;2.40;;;12.30;94.60;;;;;;5053529;28;20289;-62
2022/05/04 01:51:23;;;;;;;3.45;2.72;;;12.40;95.30;;;;;;5052864;28;20532;-62
2022/05/04 01:53:50;;;;;;;4.80;2.85;;;12.40;95.00;;;;;;5053310;28;20695;-62
2022/05/04 01:56:18;;;;;;;4.13;2.80;;;12.40;94.70;;;;;;5052764;28;20277;-62
2022/05/04 01:58:45;;;;;;;4.25;2.90;;;12.30;94.90;;;;;;5053358;28;20279;-62
2022/05/04 02:01:13;;;;;;;3.63;2.50;;;12.40;94.30;;;;;;5052471;28;20301;-62
2022/05/04 02:03:40;;;;;;;3.03;2.40;;;12.30;94.30;;;;;;5053076;28;20217;-62
2022/05/04 02:06:07;;;;;;;3.78;2.28;;;12.30;94.40;;;;;;5052310;28;20224;-62
2022/05/04 02:08:35;;;;;;;4.65;2.60;;;12.30;94.40;;;;;;5053228;28;20281;-63
2022/05/04 02:11:02;;;;;;;4.82;2.33;;;12.30;94.40;;;;;;5051971;28;20190;-62
2022/05/04 02:13:30;;;;;;;3.53;2.83;;;12.30;94.40;;;;;;5053080;28;20527;-62
2022/05/04 02:15:57;;;;;;;3.70;2.00;;;12.30;94.20;;;;;;5052291;28;20282;-63
2022/05/04 02:18:24;;;;;;;4.80;2.72;;;12.30;94.30;;;;;;5053150;28;20201;-62
2022/05/04 02:20:51;;;;;;;4.40;2.50;;;12.30;94.20;;;;;;5053062;28;20190;-64
2022/05/04 02:23:18;;;;;;;3.78;2.42;;;12.30;94.00;;;;;;5051030;28;20276;-62
2022/05/04 02:25:46;;;;;;;3.40;2.67;;;12.30;93.90;;;;;;5052412;28;20218;-62
2022/05/04 02:28:12;;;;;;;3.40;2.40;;;12.30;94.10;;;;;;5052782;28;20194;-62
2022/05/04 02:30:41;;;;;;;3.30;2.28;;;12.30;94.20;;;;;;5052204;28;20273;-62
2022/05/04 02:33:08;;;;;;;28.13;18.75;;;12.30;94.30;;;;;;5052782;28;20241;-62
2022/05/04 02:38:19;;;;;;;5.15;3.80;;;12.30;94.60;;;;;;5052870;28;20252;-62
2022/05/04 02:40:46;;;;;;;5.40;4.32;;;12.20;94.70;;;;;;5051585;28;20581;-62
2022/05/04 02:43:13;;;;;;;3.75;3.33;;;12.20;94.80;;;;;;5052762;28;20543;-62
2022/05/04 02:45:41;;;;;;;4.30;3.72;;;12.20;95.00;;;;;;5051652;28;20237;-62
2022/05/04 02:48:09;;;;;;;4.72;4.32;;;12.20;95.00;;;;;;5051643;28;20264;-62
2022/05/04 02:50:37;;;;;;;5.75;4.80;;;12.20;94.90;;;;;;5052473;28;20194;-62
2022/05/04 02:53:05;;;;;;;5.05;4.65;;;12.10;94.90;;;;;;5051862;28;20228;-62
2022/05/04 02:55:32;;;;;;;3.42;2.58;;;12.10;94.90;;;;;;5052456;28;20194;-62
2022/05/04 02:58:00;;;;;;;4.90;2.83;;;12.10;94.80;;;;;;5052072;28;20532;-63
2022/05/04 03:00:27;;;;;;;3.75;2.55;;;12.00;94.90;;;;;;5052291;28;20198;-63
2022/05/04 03:02:55;;;;;;;2.83;2.47;;;12.00;94.80;;;;;;5051915;28;20272;-62
2022/05/04 03:05:22;;;;;;;4.05;2.80;;;12.00;94.70;;;;;;5052305;28;20233;-62
2022/05/04 03:07:49;;;;;;;3.97;2.80;;;11.90;94.20;;;;;;5051726;28;20388;-62
2022/05/04 03:10:17;;;;;;;4.38;2.67;;;11.60;93.20;;;;;;5052577;28;20277;-63
2022/05/04 03:12:44;;;;;;;4.40;2.80;;;11.50;93.00;;;;;;5050927;28;20186;-62
2022/05/04 03:15:11;;;;;;;3.75;2.65;;;11.40;93.50;;;;;;5052297;28;20551;-62
2022/05/04 03:17:38;;;;;;;3.20;2.65;;;11.30;93.90;;;;;;5051728;28;20269;-62
2022/05/04 03:20:07;;;;;;;3.97;3.58;;;11.20;94.70;;;;;;5052172;28;20196;-62
2022/05/04 03:22:34;;;;;;;3.80;3.00;;;11.20;94.90;;;;;;5051524;28;20224;-62
2022/05/04 03:25:05;;;;;;;4.18;2.90;;;11.20;95.10;;;;;;5050102;28;20294;-63
2022/05/04 03:27:32;;;;;;;5.15;3.10;;;11.20;95.20;;;;;;5051811;28;20190;-63
2022/05/04 03:29:59;;;;;;;4.20;3.08;;;11.20;95.30;;;;;;5051714;28;20269;-62
2022/05/04 03:32:26;;;;;;;4.18;2.65;;;11.10;95.30;;;;;;5052003;28;20275;-62
2022/05/04 03:34:53;;;;;;;3.25;2.50;;;11.10;94.90;;;;;;5051076;28;20187;-63
2022/05/04 03:37:22;;;;;;;3.55;2.50;;;10.90;94.30;;;;;;5051952;28;20194;-62
2022/05/04 03:39:49;;;;;;;3.47;2.90;;;10.90;94.40;;;;;;5051205;28;20594;-62
2022/05/04 03:42:16;;;;;;;4.90;3.60;;;10.80;94.60;;;;;;5051634;28;20671;-62
2022/05/04 03:44:43;;;;;;;5.15;2.65;;;10.80;94.70;;;;;;5050270;28;20244;-62
2022/05/04 03:47:10;;;;;;;5.22;3.13;;;10.80;95.00;;;;;;5051385;28;20240;-62
2022/05/04 03:49:38;;;;;;;5.03;3.97;;;10.80;95.20;;;;;;5051083;28;20202;-65
2022/05/04 03:52:06;;;;;;;5.20;4.40;;;10.80;95.10;;;;;;5051202;28;20289;-62
2022/05/04 03:54:34;;;;;;;4.88;3.90;;;10.80;95.50;;;;;;5051175;28;20281;-62
2022/05/04 03:57:02;;;;;;;4.85;3.80;;;10.90;95.90;;;;;;5051350;28;20283;-62
2022/05/04 03:59:29;;;;;;;4.97;3.67;;;10.90;96.10;;;;;;5051069;28;20194;-64
2022/05/04 04:01:56;;;;;;;5.07;4.53;;;10.90;96.10;;;;;;5053337;28;20624;-62
2022/05/04 04:04:24;;;;;;;6.13;4.32;;;11.00;95.90;;;;;;5055489;28;20240;-62
2022/05/04 04:06:51;;;;;;;5.70;3.40;;;11.00;95.40;;;;;;5055398;28;20570;-63
2022/05/04 04:09:18;;;;;;;4.03;2.63;;;11.00;94.90;;;;;;5055610;28;20569;-62
2022/05/04 04:11:47;;;;;;;3.63;2.70;;;10.90;94.60;;;;;;5055041;28;20253;-62
2022/05/04 04:14:14;;;;;;;4.70;3.25;;;10.90;94.40;;;;;;5055156;28;20191;-62
2022/05/04 04:16:42;;;;;;;8.65;6.60;;;10.90;94.40;;;;;;5055075;28;20222;-62
2022/05/04 04:19:11;;;;;;;7.05;6.00;;;10.90;94.50;;;;;;5055240;28;20217;-61
2022/05/04 04:21:53;;;;;;;6.28;4.85;;;11.00;95.00;;;;;;5054824;28;20195;-62
2022/05/04 04:24:22;;;;;;;6.13;4.95;;;11.00;95.30;;;;;;5055155;28;20267;-62
2022/05/04 04:26:52;;;;;;;6.93;4.07;;;11.10;95.40;;;;;;5054825;28;20277;-62
2022/05/04 04:29:19;;;;;;;4.13;3.63;;;11.10;95.10;;;;;;5055091;28;20205;-62
2022/05/04 04:31:46;;;;;;;5.25;3.80;;;11.20;95.10;;;;;;5054754;28;20722;-62
2022/05/04 04:34:14;;;;;;;5.38;4.57;;;11.20;95.00;;;;;;5054779;28;20195;-62
2022/05/04 04:36:42;;;;;;;6.32;4.07;;;11.20;94.90;;;;;;5054754;28;20226;-63
2022/05/04 04:39:10;;;;;;;5.80;4.25;;;11.20;94.90;;;;;;5055151;28;20194;-62
2022/05/04 04:41:37;;;;;;;4.20;3.30;;;11.30;94.70;;;;;;5054671;28;20197;-62
2022/05/04 04:44:06;;;;;;;14.43;4.45;;;11.20;94.70;;;;;;5054805;28;20194;-62
2022/05/04 04:46:34;;;;;;;15.13;4.43;;;11.20;94.80;;;;;;5054321;28;20226;-62
2022/05/04 04:49:03;;;;;;;14.60;5.50;;;11.20;94.60;;;;;;5054126;28;20240;-63
2022/05/04 04:51:30;;;;;;;24.50;5.43;;;11.10;94.90;;;;;;5054732;28;20252;-62
2022/05/04 04:53:57;;;;;;;8.05;4.75;;;11.10;95.10;;;;;;5054321;28;20218;-62
2022/05/04 04:56:24;;;;;;;7.22;3.70;;;11.10;95.50;;;;;;5054718;28;20277;-62
2022/05/04 04:58:51;;;;;;;9.15;4.18;;;11.10;95.30;;;;;;5054108;28;20190;-62
2022/05/04 05:01:20;;;;;;;17.67;4.95;;;11.10;95.30;;;;;;5053493;28;20195;-62
2022/05/04 05:03:48;;;;;;;7.40;4.70;;;11.10;95.50;;;;;;5054701;28;20385;-63
2022/05/04 05:06:18;;;;;;;9.32;5.22;;;11.10;96.00;;;;;;5054193;28;20556;-63
2022/05/04 05:08:47;;;;;;;37.97;13.48;;;11.20;96.40;;;;;;5054451;28;20228;-62
2022/05/04 05:11:15;;;;;;;33.50;12.48;;;11.30;96.10;;;;;;5052867;28;20186;-67
2022/05/04 05:16:24;;;;;;;6.00;4.15;;;11.20;96.20;;;;;;5052140;28;20524;-62
2022/05/04 05:18:52;;;;;;;4.82;3.85;;;11.20;96.80;;;;;;5052307;28;20291;-63
2022/05/04 05:21:20;;;;;;;4.85;3.88;;;11.20;97.20;;;;;;5052117;28;20595;-62
2022/05/04 05:23:47;;;;;;;3.55;2.78;;;11.20;96.30;;;;;;5052148;28;20233;-62
2022/05/04 05:26:14;;;;;;;4.50;2.88;;;11.30;96.00;;;;;;5051957;28;20309;-62
2022/05/04 05:28:41;;;;;;;4.10;3.05;;;11.30;96.40;;;;;;5051867;28;20301;-63
2022/05/04 05:31:08;;;;;;;4.97;3.25;;;11.30;96.70;;;;;;5051630;28;20706;-62
2022/05/04 05:33:37;;;;;;;3.55;2.88;;;11.40;96.50;;;;;;5052138;28;20198;-62
2022/05/04 05:36:06;;;;;;;3.80;2.90;;;11.50;96.60;;;;;;5051463;28;20190;-61
2022/05/04 05:38:33;;;;;;;4.18;3.70;;;11.50;96.60;;;;;;5051895;28;20194;-62
2022/05/04 05:41:01;;;;;;;4.35;3.47;;;11.70;97.00;;;;;;5052000;28;20193;-62
2022/05/04 05:43:29;;;;;;;4.35;3.67;;;11.90;96.60;;;;;;5052143;28;20556;-62
2022/05/04 05:45:56;;;;;;;4.45;3.28;;;11.90;95.70;;;;;;5050579;28;20250;-63
2022/05/04 05:48:23;;;;;;;4.55;3.00;;;12.00;96.10;;;;;;5051180;28;20195;-62
2022/05/04 05:50:52;;;;;;;4.10;3.58;;;12.10;96.40;;;;;;5051576;28;20240;-63
2022/05/04 05:53:19;;;;;;;4.43;3.45;;;12.20;96.60;;;;;;5050162;28;20190;-62
2022/05/04 05:55:46;;;;;;;5.15;3.67;;;12.40;96.50;;;;;;5049960;28;20190;-63
2022/05/04 05:58:13;;;;;;;6.60;4.20;;;12.50;96.10;;;;;;5052192;28;20199;-62
2022/05/04 06:00:40;;;;;;;4.15;3.50;;;12.60;95.20;;;;;;5049729;28;20199;-62
2022/05/04 06:03:07;;;;;;;5.13;4.15;;;12.80;95.10;;;;;;5047634;28;20225;-64
2022/05/04 06:05:34;;;;;;;5.53;4.35;;;12.90;95.20;;;;;;5046433;28;20649;-63
2022/05/04 06:08:02;;;;;;;5.50;4.20;;;12.90;95.30;;;;;;5050842;28;20293;-63
2022/05/04 06:10:29;;;;;;;4.60;3.80;;;13.00;95.50;;;;;;5049706;28;20201;-62
2022/05/04 06:12:56;;;;;;;4.05;3.25;;;13.10;95.20;;;;;;5049967;28;20187;-62
2022/05/04 06:15:23;;;;;;;4.37;3.30;;;13.20;95.10;;;;;;5049745;28;20248;-62
2022/05/04 06:17:50;;;;;;;5.03;3.87;;;13.30;95.30;;;;;;5051217;28;20435;-62
2022/05/04 06:20:17;;;;;;;5.63;3.40;;;13.40;95.70;;;;;;5050516;28;20532;-63
2022/05/04 06:22:44;;;;;;;4.60;3.90;;;13.50;94.60;;;;;;5051261;28;20590;-62
2022/05/04 06:25:12;;;;;;;7.10;3.87;;;13.60;93.50;;;;;;5051245;28;20437;-62
2022/05/04 06:27:39;;;;;;;6.50;3.10;;;13.60;93.20;;;;;;5052060;28;20569;-63
2022/05/04 06:35:36;;;;;;;3.40;2.80;;;14.00;93.10;;;;;;5051456;28;20789;-62
2022/05/04 06:38:03;;;;;;;3.40;2.50;;;14.10;92.80;;;;;;5053075;28;20468;-62
2022/05/04 06:40:31;;;;;;;4.17;2.43;;;14.20;92.80;;;;;;5053510;28;20444;-62
2022/05/04 06:42:59;;;;;;;4.00;2.80;;;14.30;92.30;;;;;;5053388;28;20849;-62
2022/05/04 06:45:26;;;;;;;3.20;2.63;;;14.30;91.70;;;;;;5053158;28;20429;-63
2022/05/04 06:47:53;;;;;;;3.47;2.30;;;14.30;91.20;;;;;;5053110;28;20480;-62
2022/05/04 06:50:20;;;;;;;5.10;3.83;;;14.40;91.50;;;;;;5053053;28;20433;-62
2022/05/04 06:52:47;;;;;;;5.90;3.80;;;14.40;91.40;;;;;;5053205;28;20519;-62
2022/05/04 06:55:14;;;;;;;5.97;3.53;;;14.50;91.90;;;;;;5053290;28;20475;-62
2022/05/04 06:57:42;;;;;;;2.70;1.97;;;14.60;90.60;;;;;;5053190;28;20515;-62
2022/05/04 07:00:10;;;;;;;3.60;2.33;;;14.70;90.80;;;;;;5053016;28;20441;-63
2022/05/04 07:02:36;;;;;;;4.30;2.40;;;14.80;90.40;;;;;;5053126;28;20489;-62
2022/05/04 07:05:04;;;;;;;3.27;2.20;;;14.90;90.50;;;;;;5053101;28;20440;-62
2022/05/04 07:07:31;;;;;;;3.60;2.60;;;15.00;90.50;;;;;;5053102;28;20481;-64
2022/05/04 07:09:59;;;;;;;2.73;1.83;;;15.10;90.90;;;;;;5053202;28;20529;-63
2022/05/04 07:12:26;;;;;;;4.17;2.37;;;15.10;88.40;;;;;;5053165;28;20436;-63
2022/05/04 07:14:56;;;;;;;4.93;2.03;;;15.20;85.50;;;;;;5052804;28;20527;-63
2022/05/04 07:17:23;;;;;;;2.77;1.70;;;15.30;87.60;;;;;;5052896;28;20470;-62
2022/05/04 07:19:50;;;;;;;2.70;2.03;;;15.30;84.90;;;;;;5052847;28;20467;-62
2022/05/04 07:22:16;;;;;;;2.90;1.60;;;15.30;86.40;;;;;;5052724;28;20472;-62
2022/05/04 07:24:43;;;;;;;2.30;1.90;;;15.40;86.00;;;;;;5052676;28;20437;-62
2022/05/04 07:27:11;;;;;;;2.73;1.63;;;15.50;86.60;;;;;;5052688;28;20988;-63
2022/05/04 07:29:38;;;;;;;2.93;1.67;;;15.60;83.10;;;;;;5052700;28;20443;-63
2022/05/04 07:32:07;;;;;;;2.70;1.57;;;15.70;81.80;;;;;;5052488;28;20486;-63
2022/05/04 07:34:33;;;;;;;2.50;1.70;;;15.90;82.60;;;;;;5052688;28;20515;-63
2022/05/04 07:37:00;;;;;;;2.63;1.63;;;15.90;82.20;;;;;;5054462;28;20445;-63
2022/05/04 07:42:25;;;;;;;3.03;1.90;;;16.20;82.50;;;;;;5056394;28;20423;-63
2022/05/04 07:44:57;;;;;;;3.07;1.70;;;16.50;80.90;;;;;;5056503;28;20472;-63
2022/05/04 07:47:25;;;;;;;2.63;1.60;;;16.70;81.50;;;;;;5056235;28;20527;-63
2022/05/04 07:49:52;;;;;;;2.20;1.43;;;16.90;77.10;;;;;;5056247;28;20452;-63
2022/05/04 07:52:19;;;;;;;3.30;1.43;;;17.00;76.10;;;;;;5056415;28;20519;-63
2022/05/04 07:54:46;;;;;;;2.10;1.43;;;17.20;76.80;;;;;;5056405;28;20445;-63
2022/05/04 07:57:13;;;;;;;8.23;1.87;;;17.50;78.10;;;;;;5055785;28;20434;-63
2022/05/04 07:59:42;;;;;;;2.83;1.80;;;17.90;77.50;;;;;;5056283;28;20519;-63
2022/05/04 08:04:56;;;;;;;2.10;1.27;;;18.60;73.00;;;;;;5056337;28;20416;-63
2022/05/04 08:07:23;;;;;;;2.80;1.80;;;18.90;70.40;;;;;;5056080;28;20485;-63
2022/05/04 08:09:50;;;;;;;2.70;1.70;;;19.10;66.60;;;;;;5056221;28;20440;-63
2022/05/04 08:12:17;;;;;;;3.90;2.10;;;19.20;64.30;;;;;;5055659;28;20440;-64
2022/05/04 08:14:44;;;;;;;2.40;1.60;;;19.40;66.00;;;;;;5055960;28;20895;-63
2022/05/04 08:17:10;;;;;;;4.20;2.20;;;19.70;62.10;;;;;;5055996;28;20464;-63
2022/05/04 08:19:37;;;;;;;2.20;1.10;;;20.10;63.50;;;;;;5055594;28;20437;-63
2022/05/04 08:22:06;;;;;;;3.23;1.87;;;20.50;60.70;;;;;;5055604;28;20429;-63
2022/05/04 08:24:33;;;;;;;2.07;1.20;;;20.80;58.40;;;;;;5055853;28;20515;-63
2022/05/04 08:26:59;;;;;;;2.27;1.60;;;21.00;58.90;;;;;;5055544;28;20567;-64
2022/05/04 08:29:26;;;;;;;3.10;1.50;;;21.30;57.60;;;;;;5055736;28;20520;-63
2022/05/04 08:31:53;;;;;;;2.67;1.50;;;21.50;58.00;;;;;;5055582;28;20437;-63
2022/05/04 08:34:20;;;;;;;3.10;1.53;;;21.80;59.80;;;;;;5055676;28;20476;-63
2022/05/04 08:36:47;;;;;;;5.37;2.03;;;22.10;57.70;;;;;;5055568;28;20437;-64
2022/05/04 08:39:15;;;;;;;2.37;1.40;;;22.40;55.70;;;;;;5055438;28;20464;-63
2022/05/04 08:41:43;;;;;;;2.60;2.10;;;22.60;51.30;;;;;;5055664;28;20520;-64
2022/05/04 08:44:12;;;;;;;3.03;2.10;;;22.80;53.00;;;;;;5055296;28;20519;-63
2022/05/04 08:46:40;;;;;;;3.20;2.10;;;22.90;51.50;;;;;;5054803;28;20538;-63
2022/05/04 08:49:09;;;;;;;2.83;2.00;;;23.10;51.30;;;;;;5055115;28;20429;-64
2022/05/04 08:51:37;;;;;;;3.07;2.27;;;23.20;52.30;;;;;;5055438;28;20440;-64
2022/05/04 08:54:04;;;;;;;2.90;2.03;;;23.40;51.30;;;;;;5055025;28;20464;-64
2022/05/04 08:56:33;;;;;;;2.93;1.77;;;23.60;50.00;;;;;;5055277;28;20475;-63
2022/05/04 08:59:02;;;;;;;3.20;1.73;;;23.70;50.50;;;;;;5055256;28;20837;-64
2022/05/04 09:01:29;;;;;;;2.53;1.90;;;23.90;49.00;;;;;;5055235;28;20571;-64
2022/05/04 09:03:59;;;;;;;2.40;2.00;;;24.00;47.40;;;;;;5055137;28;20429;-64
2022/05/04 09:06:27;;;;;;;2.93;1.97;;;24.20;47.00;;;;;;5054951;28;20433;-64
2022/05/04 09:08:56;;;;;;;2.60;1.80;;;24.20;47.10;;;;;;5054618;28;20922;-63
2022/05/04 09:11:24;;;;;;;5.13;2.23;;;24.40;50.00;;;;;;5051852;28;20435;-63
2022/05/04 09:13:52;;;;;;;4.17;2.23;;;24.60;49.40;;;;;;5053971;28;20491;-63
2022/05/04 09:16:27;;;;;;;2.60;1.97;;;24.80;47.20;;;;;;5054727;28;20537;-64
2022/05/04 09:18:54;;;;;;;3.37;1.90;;;25.00;46.90;;;;;;5054544;28;20779;-64
2022/05/04 09:21:22;;;;;;;7.27;2.80;;;25.20;45.80;;;;;;5054321;28;20499;-64
2022/05/04 09:23:53;;;;;;;3.40;2.10;;;25.20;46.40;;;;;;5053329;28;20438;-63
2022/05/04 09:26:21;;;;;;;5.10;2.70;;;25.40;47.20;;;;;;5054644;28;20452;-63
2022/05/04 09:28:58;;;;;;;3.40;2.63;;;25.40;44.90;;;;;;5054561;28;20581;-64
2022/05/04 09:31:26;;;;;;;4.00;2.13;;;25.60;45.50;;;;;;5054289;28;20451;-63
2022/05/04 09:33:57;;;;;;;4.13;2.67;;;25.90;46.30;;;;;;5051885;28;20959;-63
2022/05/04 09:36:33;;;;;;;3.37;2.37;;;26.00;45.20;;;;;;5054226;28;20437;-63
2022/05/04 09:47:20;;;;;;;3.80;2.37;;;26.50;41.30;;;;;;5053565;28;20996;-63
2022/05/04 09:49:48;;;;;;;5.50;3.10;;;26.70;39.60;;;;;;5054157;28;20448;-63
2022/05/04 09:52:16;;;;;;;4.40;2.40;;;26.80;36.00;;;;;;5053898;28;20433;-64
2022/05/04 09:54:45;;;;;;;2.90;2.33;;;26.80;35.10;;;;;;5050024;28;20449;-64
2022/05/04 09:57:12;;;;;;;2.90;2.43;;;26.90;35.70;;;;;;5054058;28;20524;-63
2022/05/04 09:59:43;;;;;;;4.40;2.80;;;27.00;37.60;;;;;;5052545;28;20968;-63
2022/05/04 10:02:13;;;;;;;3.60;2.60;;;27.30;36.70;;;;;;5053684;28;20841;-64
2022/05/04 10:04:43;;;;;;;2.93;2.53;;;27.30;35.40;;;;;;5053770;28;20475;-63
2022/05/04 10:07:11;;;;;;;3.00;2.23;;;27.30;33.20;;;;;;5053630;28;20486;-63
2022/05/04 10:09:38;;;;;;;4.53;2.53;;;27.10;35.20;;;;;;5053769;28;20462;-65
2022/05/04 10:12:07;;;;;;;4.57;2.90;;;27.20;33.60;;;;;;5053562;28;20482;-63
2022/05/04 10:14:34;;;;;;;4.03;3.63;;;27.10;32.80;;;;;;5053506;28;20523;-63
2022/05/04 10:17:11;;;;;;;8.43;2.57;;;27.00;32.80;;;;;;5053229;28;20910;-65
2022/05/04 10:19:54;;;;;;;3.07;2.23;;;26.90;31.90;;;;;;5053208;28;20467;-63
2022/05/04 10:22:27;;;;;;;3.80;3.30;;;27.00;33.10;;;;;;5053591;28;20519;-63
2022/05/04 10:24:56;;;;;;;4.23;2.20;;;26.90;32.40;;;;;;5053791;28;20443;-63
2022/05/04 10:27:25;;;;;;;4.40;2.50;;;26.80;30.90;;;;;;5053333;28;20834;-63
2022/05/04 10:32:48;;;;;;;3.63;2.40;;;26.70;34.50;;;;;;5053167;28;20772;-63
2022/05/04 10:35:37;;;;;;;7.63;5.50;;;26.80;33.00;;;;;;5053339;28;20432;-64
2022/05/04 10:38:12;;;;;;;3.80;2.83;;;26.90;32.30;;;;;;5052407;28;20536;-64
2022/05/04 10:40:41;;;;;;;4.00;2.60;;;26.90;32.60;;;;;;5053481;28;20451;-64
2022/05/04 10:43:09;;;;;;;2.90;2.20;;;26.70;32.00;;;;;;5053151;28;20446;-63
2022/05/04 10:45:38;;;;;;;3.33;2.70;;;26.40;32.20;;;;;;5052696;28;20440;-65
2022/05/04 10:48:34;;;;;;;5.13;4.57;;;26.20;31.70;;;;;;5052928;28;20484;-64
2022/05/04 10:51:11;;;;;;;3.67;2.20;;;25.60;31.20;;;;;;5017829;28;20533;-64
2022/05/04 10:53:49;;;;;;;3.80;2.10;;;25.30;32.40;;;;;;5053116;28;20425;-64
2022/05/04 10:56:18;;;;;;;3.70;2.20;;;25.30;32.80;;;;;;5053104;28;20464;-64
2022/05/04 10:58:57;;;;;;;4.53;3.00;;;25.40;34.30;;;;;;5052754;28;20521;-63
2022/05/04 11:01:25;;;;;;;2.67;2.00;;;25.60;34.10;;;;;;5053172;28;20425;-63
2022/05/04 11:04:04;;;;;;;3.77;2.50;;;25.80;33.50;;;;;;5053070;28;20471;-63
2022/05/04 11:06:32;;;;;;;5.00;2.77;;;25.90;33.30;;;;;;5052307;28;20440;-64
2022/05/04 11:09:05;;;;;;;3.30;2.07;;;25.70;34.10;;;;;;5052882;28;20522;-64
2022/05/04 11:11:34;;;;;;;2.67;1.93;;;25.70;33.70;;;;;;5052794;28;20435;-64
2022/05/04 11:14:01;;;;;;;5.33;2.60;;;25.60;34.00;;;;;;5055797;28;20433;-63
2022/05/04 11:16:29;;;;;;;3.17;2.40;;;25.30;34.20;;;;;;5056244;28;20447;-64
2022/05/04 11:18:59;;;;;;;2.77;1.70;;;25.20;34.70;;;;;;5056383;28;20444;-63
2022/05/04 11:21:27;;;;;;;3.03;1.67;;;25.20;35.80;;;;;;5056756;28;20500;-63
2022/05/04 11:23:56;;;;;;;2.90;2.30;;;25.20;36.00;;;;;;5056271;28;20476;-64
2022/05/04 11:26:25;;;;;;;3.53;2.30;;;25.20;35.40;;;;;;5055873;28;20446;-63
2022/05/04 11:28:53;;;;;;;2.50;1.60;;;25.30;35.80;;;;;;5056522;28;20485;-63
2022/05/04 11:31:21;;;;;;;2.30;1.10;;;25.40;36.60;;;;;;5055864;28;20457;-64
2022/05/04 11:33:50;;;;;;;2.40;1.50;;;25.60;35.20;;;;;;5055535;28;20515;-65
2022/05/04 11:36:20;;;;;;;4.43;1.30;;;25.60;32.80;;;;;;5056020;28;20472;-63
2022/05/04 11:38:48;;;;;;;3.37;1.53;;;25.50;32.90;;;;;;5056369;28;20445;-64
2022/05/04 11:41:15;;;;;;;3.00;1.43;;;25.30;33.70;;;;;;5055986;28;20506;-63
2022/05/04 11:43:43;;;;;;;3.30;1.83;;;25.20;34.50;;;;;;5056020;28;20835;-63
2022/05/04 11:46:11;;;;;;;2.70;1.70;;;24.90;34.20;;;;;;5055345;28;20538;-64
2022/05/04 11:48:42;;;;;;;2.60;1.70;;;24.80;34.50;;;;;;5056322;28;20482;-63
2022/05/04 11:51:10;;;;;;;6.17;2.77;;;24.70;34.70;;;;;;5053663;28;20441;-64
2022/05/04 11:53:39;;;;;;;2.70;1.87;;;24.70;37.40;;;;;;5055875;28;20988;-63
2022/05/04 11:56:07;;;;;;;4.40;2.37;;;24.70;40.00;;;;;;5054556;28;20434;-63
2022/05/04 11:58:37;;;;;;;6.10;2.13;;;24.80;41.30;;;;;;5056296;28;20529;-64
2022/05/04 12:01:06;;;;;;;4.57;3.00;;;25.00;43.00;;;;;;5056148;28;20439;-63
2022/05/04 12:03:36;;;;;;;3.30;2.23;;;25.40;43.80;;;;;;5055603;28;20528;-63
2022/05/04 12:06:06;;;;;;;3.00;1.83;;;25.70;43.00;;;;;;5056325;28;20864;-65
2022/05/04 12:08:33;;;;;;;3.30;1.97;;;26.00;41.20;;;;;;5055914;28;20540;-64
2022/05/04 12:11:02;;;;;;;3.23;2.00;;;26.20;38.90;;;;;;5055688;28;20526;-63
2022/05/04 12:13:29;;;;;;;2.63;1.70;;;26.30;38.60;;;;;;5055805;28;20982;-64
2022/05/04 12:15:58;;;;;;;3.30;2.50;;;26.40;35.70;;;;;;5055394;28;21004;-63
2022/05/04 12:18:28;;;;;;;2.13;1.17;;;26.70;35.30;;;;;;5055452;28;20441;-64
2022/05/04 12:20:56;;;;;;;3.13;1.60;;;26.90;36.70;;;;;;5055909;28;20473;-65
2022/05/04 12:23:24;;;;;;;3.73;2.03;;;27.10;35.00;;;;;;5054797;28;20942;-63
2022/05/04 12:25:51;;;;;;;2.83;1.37;;;27.30;33.90;;;;;;5055734;28;20863;-63
2022/05/04 12:28:19;;;;;;;2.80;1.47;;;27.30;32.90;;;;;;5055468;28;20495;-63
2022/05/04 12:33:32;;;;;;;2.90;1.73;;;27.40;33.00;;;;;;5055259;28;20922;-64
2022/05/04 12:36:01;;;;;;;2.60;1.60;;;27.40;34.40;;;;;;5055538;28;20444;-64
2022/05/04 12:38:28;;;;;;;2.70;1.67;;;27.40;32.60;;;;;;5055568;28;20525;-65
2022/05/04 12:40:55;;;;;;;2.73;1.47;;;27.40;34.10;;;;;;5055638;28;20517;-63
2022/05/04 12:43:27;;;;;;;2.30;1.70;;;27.50;31.60;;;;;;5055385;28;20441;-63
2022/05/04 12:45:56;;;;;;;2.10;1.20;;;27.30;30.10;;;;;;5055247;28;20470;-63
2022/05/04 12:48:26;;;;;;;2.40;1.33;;;27.20;31.90;;;;;;5054722;28;20478;-63
2022/05/04 12:50:54;;;;;;;2.60;1.40;;;27.20;31.90;;;;;;5055138;28;21207;-63
2022/05/04 12:53:21;;;;;;;2.97;1.70;;;27.10;29.30;;;;;;5055412;28;20455;-63
2022/05/04 12:58:33;;;;;;;2.23;1.60;;;26.70;31.20;;;;;;5055166;28;20439;-63
2022/05/04 13:01:00;;;;;;;3.80;1.63;;;26.60;31.60;;;;;;5055200;28;20788;-64
2022/05/04 13:03:27;;;;;;;6.27;1.40;;;26.40;29.20;;;;;;5055020;28;20520;-63
2022/05/04 13:05:54;;;;;;;2.40;1.40;;;26.00;29.30;;;;;;5055096;28;20548;-63
2022/05/04 13:08:21;;;;;;;3.67;1.63;;;25.80;29.60;;;;;;5054730;28;20583;-63
2022/05/04 13:10:49;;;;;;;3.13;1.40;;;25.50;30.80;;;;;;5054805;28;20487;-63
2022/05/04 13:13:19;;;;;;;2.77;1.63;;;25.40;31.60;;;;;;5054588;28;20482;-63
2022/05/04 13:15:48;;;;;;;2.60;1.60;;;25.20;31.80;;;;;;5054862;28;20431;-63
2022/05/04 13:18:19;;;;;;;3.90;2.23;;;25.10;34.10;;;;;;5054797;28;20439;-63
2022/05/04 13:20:46;;;;;;;3.70;1.70;;;25.10;35.00;;;;;;5054495;28;20543;-63
2022/05/04 13:23:14;;;;;;;2.17;1.33;;;25.10;34.50;;;;;;5054247;28;20448;-63
2022/05/04 13:25:41;;;;;;;2.83;1.47;;;25.10;32.70;;;;;;5054186;28;21010;-63